• Join FlightAware (Why Join?)
  • Login
  • US Flag 
Rudolph Flight #1: Scheduled 
10:48PM EST


 

Airport Tracker/Info


-or-


 

Live Flight TrackerFlight Track Log ✈ OPT471 ✈ 08-May-2013 ✈ KPIE - KRIC

Flight Track Log - Related Links

Times and Time Zones

All times are in EDT time to prevent confusion due to time zone crossing. See the OPT471 flight status page for this flight to view local times or setup timezone preferences in your user account.

Time Position Orientation Groundspeed Altitude Reporting Facility
EDT Latitude Longitude Course Direction KTS MPH feet Rate Location/Type
11:37AM 27.9333 -82.7000 360° North 162 186 1,200  Level Tampa TRACON
11:38AM 27.9833 -82.7000 360° North 192 221 1,800 1,260 Climbing Tampa TRACON
11:39AM 28.0333 -82.7000 360° North 204 235 3,900 2,220 Climbing Tampa TRACON
11:40AM 28.1000 -82.7000 360° North 235 270 5,900 1,980 Climbing Tampa TRACON
11:41AM 28.1333 -82.6167 66° East 279 321 7,700 1,380 Climbing Tampa TRACON
11:42AM 28.1833 -82.5667 41° Northeast 275 316 8,600 1,560 Climbing Tampa TRACON
11:45AM 28.4042 -82.5575 North 268 308 14,200 1,860 Climbing Jacksonville Center
11:46AM 28.4792 -82.5644 355° North 273 314 16,500 2,280 Climbing Jacksonville Center
11:47AM 28.5586 -82.5642 360° North 273 314 18,800 2,100 Climbing Jacksonville Center
11:48AM 28.6400 -82.5686 357° North 278 320 20,700 1,980 Climbing Jacksonville Center
11:49AM 28.7214 -82.5706 359° North 283 326 22,800 1,980 Climbing Jacksonville Center
11:50AM 28.8069 -82.5797 355° North 293 337 24,700 1,800 Climbing Jacksonville Center
11:51AM 28.8947 -82.5842 357° North 305 351 26,500 1,680 Climbing Jacksonville Center
11:52AM 28.9844 -82.5911 356° North 310 357 28,100 1,560 Climbing Jacksonville Center
11:53AM 29.0783 -82.5981 356° North 322 371 29,700 1,500 Climbing Jacksonville Center
11:54AM 29.1722 -82.6025 358° North 328 377 31,100 1,440 Climbing Jacksonville Center
11:55AM 29.2661 -82.6092 356° North 328 377 32,600 1,260 Climbing Jacksonville Center
11:56AM 29.3603 -82.6139 357° North 328 377 33,700 720 Climbing Jacksonville Center
11:57AM 29.4625 -82.6206 357° North 335 386 34,100 600 Climbing Jacksonville Center
11:58AM 29.5669 -82.6275 357° North 360 414 35,000 900 Climbing Jacksonville Center
11:59AM 29.6753 -82.6200 North 371 427 36,000 900 Climbing Jacksonville Center
12:00PM 29.7839 -82.6125 North 382 440 36,800 720 Climbing Jacksonville Center
12:01PM 29.8925 -82.6028 North 387 445 37,500 900 Climbing Jacksonville Center
12:02PM 30.0011 -82.5928 North 387 445 38,700 960 Climbing Jacksonville Center
12:03PM 30.1053 -82.5878 North 382 440 39,500 540 Climbing Jacksonville Center
12:04PM 30.2119 -82.5800 North 382 440 39,800 360 Climbing Jacksonville Center
12:05PM 30.3203 -82.5725 North 387 445 40,300 480 Climbing Jacksonville Center
12:06PM 30.4269 -82.5600 North 387 445 40,800 300 Climbing Jacksonville Center
12:07PM 30.5333 -82.5186 19° North 387 445 41,000 60 Climbing Jacksonville Center
12:08PM 30.6311 -82.4289 38° Northeast 384 442 41,000  Level Jacksonville Center
12:09PM 30.7225 -82.3344 42° Northeast 416 479 41,000  Level Jacksonville Center
12:10PM 30.8139 -82.2394 42° Northeast 433 498 41,000  Level Jacksonville Center
12:11PM 30.9094 -82.1419 41° Northeast 439 505 41,000  Level Jacksonville Center
12:12PM 31.0050 -82.0442 41° Northeast 439 505 41,000  Level Jacksonville Center
12:13PM 31.1003 -81.9439 42° Northeast 444 511 41,000  Level Jacksonville Center
12:14PM 31.1975 -81.8433 41° Northeast 454 522 41,000  Level Jacksonville Center
12:15PM 31.2950 -81.7475 40° Northeast 459 528 41,000  Level Jacksonville Center
12:16PM 31.3775 -81.6539 44° Northeast 459 528 41,000  Level Jacksonville Center
12:17PM 31.4892 -81.5550 37° Northeast 459 528 41,000  Level Jacksonville Center
12:18PM 31.5992 -81.4900 27° Northeast 446 513 41,000  Level Jacksonville Center
12:19PM 31.7072 -81.4272 26° Northeast 433 498 41,000  Level Jacksonville Center
12:20PM 31.8150 -81.3597 28° Northeast 426 490 41,000  Level Jacksonville Center
12:21PM 31.9144 -81.3017 26° Northeast 431 496 41,000  Level Jacksonville Center
12:22PM 32.0222 -81.2361 27° Northeast 431 496 41,000  Level Jacksonville Center
12:23PM 32.1297 -81.1703 27° Northeast 426 490 41,000  Level Jacksonville Center
12:24PM 32.2375 -81.1044 27° Northeast 426 490 41,000  Level Jacksonville Center
12:25PM 32.3575 -81.0358 26° Northeast 431 496 41,000  Level Jacksonville Center
12:26PM 32.4547 -80.9722 29° Northeast 433 498 41,000  Level Jacksonville Center
12:27PM 32.5642 -80.9058 27° Northeast 433 498 41,000  Level Jacksonville Center
12:28PM 32.6739 -80.8417 26° Northeast 433 498 41,000  Level Jacksonville Center
12:29PM 32.7833 -80.7725 28° Northeast 433 498 41,000  Level Jacksonville Center
12:30PM 32.8928 -80.7056 27° Northeast 433 498 41,000  Level Jacksonville Center
12:31PM 33.0022 -80.6386 27° Northeast 433 498 41,000  Level Jacksonville Center
12:32PM 33.1242 -80.5661 26° Northeast 439 505 41,000  Level Jacksonville Center
12:33PM 33.2375 -80.4936 28° Northeast 439 505 41,000  Level Jacksonville Center
12:34PM 33.3469 -80.4236 28° Northeast 445 512 41,000  Level Jacksonville Center
12:35PM 33.4561 -80.3558 27° Northeast 445 512 41,000  Level Jacksonville Center
12:36PM 33.5675 -80.2853 28° Northeast 445 512 41,000  Level Jacksonville Center
12:37PM 33.6767 -80.2172 27° Northeast 445 512 41,000  Level Jacksonville Center
12:38PM 33.7856 -80.1464 28° Northeast 445 512 41,000  Level Jacksonville Center
12:39PM 33.8928 -80.0781 28° Northeast 445 512 41,000  Level Jacksonville Center
12:40PM 34.0017 -80.0094 28° Northeast 440 506 41,000  Level Jacksonville Center
12:41PM 34.1086 -79.9406 28° Northeast 435 501 41,000  Level Jacksonville Center
12:42PM 34.2175 -79.8717 28° Northeast 435 501 41,000  Level Jacksonville Center
12:45PM 34.4811 -79.6961 29° Northeast 449 517 41,000  Level Washington Center
12:46PM 34.5839 -79.6181 32° Northeast 449 517 41,000  Level Washington Center
12:47PM 34.6931 -79.5400 30° Northeast 444 511 41,000  Level Washington Center
12:48PM 34.7997 -79.4617 31° Northeast 444 511 41,000  Level Washington Center
12:49PM 34.9025 -79.3831 32° Northeast 439 505 41,000  Level Washington Center
12:50PM 35.0092 -79.3044 31° Northeast 439 505 41,000  Level Washington Center
12:51PM 35.1142 -79.2231 32° Northeast 439 505 41,000  Level Washington Center
12:52PM 35.2228 -79.1439 31° Northeast 439 505 41,000  Level Washington Center
12:53PM 35.3275 -79.0644 32° Northeast 439 505 41,000  Level Washington Center
12:54PM 35.4342 -78.9825 32° Northeast 439 505 41,000  Level Washington Center
12:55PM 35.5406 -78.9053 31° Northeast 439 505 41,000  Level Washington Center
12:56PM 35.6472 -78.8253 31° Northeast 439 505 41,000  Level Washington Center
12:57PM 35.7431 -78.7500 33° Northeast 439 505 41,000 -1,200 Level Washington Center
12:58PM 35.8494 -78.6669 32° Northeast 444 511 38,700 -2,580 Descending Washington Center
12:59PM 35.9539 -78.5839 33° Northeast 449 517 35,800 -2,940 Descending Washington Center
01:00PM 36.0603 -78.5031 32° Northeast 449 517 33,000 -2,760 Descending Washington Center
01:01PM 36.1603 -78.4219 33° Northeast 444 511 30,400 -2,640 Descending Washington Center
01:02PM 36.2642 -78.3433 31° Northeast 438 504 27,700 -2,700 Descending Washington Center
01:03PM 36.3664 -78.2617 33° Northeast 439 505 25,000 -2,640 Descending Washington Center
01:04PM 36.4681 -78.1850 31° Northeast 434 499 22,400 -2,640 Descending Washington Center
01:05PM 36.5617 -78.1081 33° Northeast 415 478 19,800 -2,520 Descending Washington Center
01:06PM 36.6592 -78.0336 31° Northeast 409 471 17,500 -2,280 Descending Washington Center
01:07PM 36.7483 -77.9586 34° Northeast 403 464 15,300 -2,160 Descending Washington Center
01:08PM 36.8350 -77.8911 32° Northeast 379 436 13,200 -2,100 Descending Washington Center
01:09PM 36.9114 -77.8258 34° Northeast 354 407 11,200 -1,680 Descending Washington Center
01:10PM 36.9814 -77.7681 33° Northeast 326 375 10,000 -600 Descending Washington Center
01:11PM 37.0533 -77.7078 34° Northeast 307 353 10,000 -600 Level Washington Center
01:12PM 37.1253 -77.6444 35° Northeast 307 353 8,900 -1,200 Descending Washington Center
01:13PM 37.2011 -77.5997 25° Northeast 307 353 7,700 -1,260 Descending Washington Center
01:14PM 37.2767 -77.5728 16° North 287 330 6,400 -1,380 Descending Washington Center
01:15PM 37.3522 -77.5461 16° North 282 325 5,000 -1,260 Descending Washington Center
01:16PM 37.4258 -77.5192 16° North 282 325 4,000 -1,200 Descending Washington Center
01:17PM 37.4867 -77.4919 20° North 258 297 2,700 -840 Descending Washington Center
01:18PM 37.5211 -77.4272 56° Northeast 221 254 2,400 -480 Descending Washington Center
01:19PM 37.5428 -77.3675 65° Northeast 199 229 1,800 -660 Descending Washington Center
01:21PM 37.5000 -77.3167 90° East  Level FlightAware Approximate
01:28PM 37.5052 -77.3197 90° East  Level Estimated
01:29PM 37.5000 -77.3167 90° East  Level FlightAware Approximate
01:30PM 37.5052 -77.3197 90° East  Level Estimated
01:31PM 37.5000 -77.3167 90° East  Level FlightAware Approximate
01:32PM 37.5052 -77.3197 90° East  Level Estimated
01:33PM 37.5000 -77.3167 90° East  Level FlightAware Approximate
01:34PM 37.5052 -77.3197 90° East  Level Estimated
01:35PM 37.5000 -77.3167 90° East  Level FlightAware Approximate